createdAt,value
2018-12-03T00:01:20.331Z,97888.89
2018-12-03T00:03:55.356Z,97885.02
2018-12-03T00:06:29.012Z,97882.41
2018-12-03T00:09:00.633Z,97881.63
2018-12-03T00:11:33.613Z,97882.35
2018-12-03T00:14:05.729Z,97880.23
2018-12-03T00:16:37.417Z,97881.09
2018-12-03T00:19:10.066Z,97885.97
2018-12-03T00:21:41.875Z,97885.65
2018-12-03T00:24:13.596Z,97881.36
2018-12-03T00:26:45.344Z,97883.89
2018-12-03T00:29:17.055Z,97878.44
2018-12-03T00:31:48.858Z,97880.68
2018-12-03T00:34:20.816Z,97873.13
2018-12-03T00:36:52.657Z,97874.47
2018-12-03T00:39:24.556Z,97872.72
2018-12-03T00:41:56.366Z,97880.20
2018-12-03T00:44:28.181Z,97878.00
2018-12-03T00:47:00.001Z,97877.91
2018-12-03T00:49:31.657Z,97873.61
2018-12-03T00:52:03.471Z,97881.03
2018-12-03T00:54:35.357Z,97877.94
2018-12-03T00:57:07.220Z,97871.95
2018-12-03T00:59:39.146Z,97870.15
2018-12-03T01:02:26.870Z,97862.55
2018-12-03T01:04:58.559Z,97865.52
2018-12-03T01:07:30.389Z,97859.89
2018-12-03T01:10:02.229Z,97859.48
2018-12-03T01:12:35.088Z,97856.02
2018-12-03T01:15:08.454Z,97847.52
2018-12-03T01:17:40.289Z,97848.69
2018-12-03T01:20:13.578Z,97844.84
2018-12-03T01:22:45.336Z,97840.19
2018-12-03T01:25:17.077Z,97837.22
2018-12-03T01:27:48.866Z,97833.74
2018-12-03T01:30:20.514Z,97840.42
2018-12-03T01:32:52.248Z,97826.05
2018-12-03T01:35:24.003Z,97827.82
2018-12-03T01:37:55.884Z,97818.52
2018-12-03T01:40:27.564Z,97817.30
2018-12-03T01:42:59.313Z,97811.73
2018-12-03T01:45:30.969Z,97808.40
2018-12-03T01:48:02.690Z,97811.00
2018-12-03T01:50:34.604Z,97809.36
2018-12-03T01:53:06.408Z,97807.24
2018-12-03T01:55:38.231Z,97802.44
2018-12-03T01:58:09.995Z,97797.39
2018-12-03T02:00:41.819Z,97796.24
2018-12-03T02:03:13.692Z,97798.69
2018-12-03T02:05:45.362Z,97793.34
2018-12-03T02:08:17.069Z,97790.25
2018-12-03T02:10:48.810Z,97790.25
2018-12-03T02:13:20.579Z,97789.39
2018-12-03T02:15:52.446Z,97793.22
2018-12-03T02:18:24.277Z,97788.77
2018-12-03T02:20:56.102Z,97796.00
2018-12-03T02:23:27.800Z,97792.66
2018-12-03T02:25:59.491Z,97796.36
2018-12-03T02:28:31.321Z,97792.25
2018-12-03T02:31:03.043Z,97792.11
2018-12-03T02:33:34.842Z,97777.45
2018-12-03T02:36:06.749Z,97777.45
2018-12-03T02:38:38.532Z,97786.66
2018-12-03T02:41:10.259Z,97789.03
2018-12-03T02:43:41.999Z,97782.23
2018-12-03T02:46:13.690Z,97786.00
2018-12-03T02:48:45.561Z,97776.22
2018-12-03T02:51:17.241Z,97773.63
2018-12-03T02:53:48.932Z,97775.02
2018-12-03T02:56:20.651Z,97771.98
2018-12-03T02:58:52.381Z,97766.46
2018-12-03T03:01:24.109Z,97765.80
2018-12-03T03:03:55.772Z,97765.01
2018-12-03T03:06:27.608Z,97763.91
2018-12-03T03:08:59.378Z,97759.85
2018-12-03T03:11:31.210Z,97759.32
2018-12-03T03:14:02.881Z,97757.55
2018-12-03T03:16:34.698Z,97757.96
2018-12-03T03:19:06.473Z,97758.99
2018-12-03T03:21:38.325Z,97749.61
2018-12-03T03:24:10.019Z,97750.33
2018-12-03T03:26:42.042Z,97748.58
2018-12-03T03:29:14.035Z,97752.22
2018-12-03T03:31:45.881Z,97750.74
2018-12-03T03:34:17.719Z,97750.10
2018-12-03T03:36:49.507Z,97750.45
2018-12-03T03:39:21.310Z,97751.55
2018-12-03T03:41:53.158Z,97756.29
2018-12-03T03:44:24.919Z,97753.84
2018-12-03T03:46:56.824Z,97749.41
2018-12-03T03:49:29.860Z,97752.06
2018-12-03T03:52:01.709Z,97749.70
2018-12-03T03:54:33.458Z,97745.20
2018-12-03T03:57:05.303Z,97740.64
2018-12-03T03:59:37.165Z,97744.99
2018-12-03T04:02:08.909Z,97746.33
2018-12-03T04:04:40.612Z,97739.84
2018-12-03T04:07:12.289Z,97748.28
2018-12-03T04:09:44.099Z,97743.94
2018-12-03T04:12:15.852Z,97746.46
2018-12-03T04:14:47.679Z,97741.20
2018-12-03T04:17:19.474Z,97743.63
2018-12-03T04:19:51.376Z,97741.89
2018-12-03T04:22:23.192Z,97747.03
2018-12-03T04:24:55.040Z,97738.55
2018-12-03T04:27:26.730Z,97742.11
2018-12-03T04:29:58.611Z,97743.75
2018-12-03T04:32:30.345Z,97741.37
2018-12-03T04:35:02.262Z,97743.86
2018-12-03T04:37:34.047Z,97744.30
2018-12-03T04:40:06.223Z,97737.81
2018-12-03T04:42:37.950Z,97738.44
2018-12-03T04:45:21.249Z,97733.34
2018-12-03T04:47:53.207Z,97726.06
2018-12-03T04:50:25.415Z,97727.22
2018-12-03T04:52:57.155Z,97729.53
2018-12-03T04:55:28.769Z,97734.55
2018-12-03T04:58:00.494Z,97737.28
2018-12-03T05:00:32.473Z,97735.30
2018-12-03T05:03:04.118Z,97734.86
2018-12-03T05:05:35.910Z,97735.49
2018-12-03T05:08:07.928Z,97743.03
2018-12-03T05:10:39.679Z,97751.22
2018-12-03T05:13:11.419Z,97749.77
2018-12-03T05:15:43.258Z,97741.84
2018-12-03T05:18:14.977Z,97748.14
2018-12-03T05:20:46.839Z,97746.20
2018-12-03T05:23:18.597Z,97752.22
2018-12-03T05:25:50.248Z,97754.86
2018-12-03T05:28:22.374Z,97751.49
2018-12-03T05:30:54.132Z,97754.86
2018-12-03T05:33:25.913Z,97757.41
2018-12-03T05:35:57.664Z,97748.80
2018-12-03T05:38:29.560Z,97753.72
2018-12-03T05:41:01.437Z,97747.35
2018-12-03T05:43:33.127Z,97749.46
2018-12-03T05:46:04.980Z,97749.50
2018-12-03T05:48:37.597Z,97757.26
2018-12-03T05:51:09.380Z,97749.53
2018-12-03T05:53:41.333Z,97750.20
2018-12-03T05:56:13.200Z,97751.91
2018-12-03T05:58:44.897Z,97757.55
2018-12-03T06:01:16.749Z,97755.84
2018-12-03T06:03:48.418Z,97756.41
2018-12-03T06:06:20.227Z,97752.02
2018-12-03T06:08:52.079Z,97742.09
2018-12-03T06:11:28.202Z,97748.47
2018-12-03T06:14:00.108Z,97743.02
2018-12-03T06:16:35.976Z,97747.78
2018-12-03T06:19:14.758Z,97748.98
2018-12-03T06:21:55.641Z,97753.21
2018-12-03T06:24:27.676Z,97754.20
2018-12-03T06:26:59.683Z,97755.69
2018-12-03T06:29:38.096Z,97760.59
2018-12-03T06:32:14.015Z,97759.63
2018-12-03T06:34:49.101Z,97762.75
2018-12-03T06:37:28.447Z,97763.33
2018-12-03T06:42:46.919Z,97765.03
2018-12-03T06:45:26.183Z,97763.45
2018-12-03T06:48:11.842Z,97772.96
2018-12-03T06:50:46.713Z,97767.13
2018-12-03T06:53:25.590Z,97770.56
2018-12-03T06:56:00.927Z,97768.26
2018-12-03T06:58:38.759Z,97773.02
2018-12-03T07:01:17.148Z,97774.52
2018-12-03T07:03:57.917Z,97774.25
2018-12-03T07:06:29.769Z,97776.07
2018-12-03T07:09:06.369Z,97766.30
2018-12-03T07:11:54.377Z,97770.03
2018-12-03T07:14:37.236Z,97770.31
2018-12-03T07:17:26.795Z,97775.99
2018-12-03T07:20:02.390Z,97779.17
2018-12-03T07:22:43.117Z,97781.45
2018-12-03T07:25:21.840Z,97787.62
2018-12-03T07:28:00.451Z,97786.59
2018-12-03T07:30:39.205Z,97785.75
2018-12-03T07:33:17.877Z,97783.59
2018-12-03T07:35:53.895Z,97792.36
2018-12-03T07:38:33.693Z,97791.17
2018-12-03T07:41:09.455Z,97788.20
2018-12-03T07:43:47.809Z,97793.01
2018-12-03T07:46:26.777Z,97791.14
2018-12-03T07:49:01.818Z,97789.27
2018-12-03T07:51:39.936Z,97792.88
2018-12-03T07:54:17.808Z,97786.27
2018-12-03T07:56:56.106Z,97780.25
2018-12-03T07:59:27.824Z,97784.00
2018-12-03T08:01:59.653Z,97782.99
2018-12-03T08:04:31.444Z,97780.16
2018-12-03T08:07:03.354Z,97776.53
2018-12-03T08:09:35.113Z,97772.77
2018-12-03T08:12:07.063Z,97766.42
2018-12-03T08:14:38.913Z,97765.37
2018-12-03T08:17:10.524Z,97767.77
2018-12-03T08:19:42.304Z,97759.92
2018-12-03T08:22:15.128Z,97760.13
2018-12-03T08:24:46.895Z,97763.80
2018-12-03T08:27:18.725Z,97760.64
2018-12-03T08:29:50.440Z,97765.59
2018-12-03T08:32:22.425Z,97768.75
2018-12-03T08:34:54.317Z,97761.72
2018-12-03T08:37:25.969Z,97759.42
2018-12-03T08:39:57.758Z,97756.43
2018-12-03T08:42:29.654Z,97750.44
2018-12-03T08:45:01.468Z,97753.43
2018-12-03T08:47:33.327Z,97743.20
2018-12-03T08:50:08.756Z,97734.61
2018-12-03T08:52:40.486Z,97737.33
2018-12-03T08:55:14.016Z,97730.49
2018-12-03T08:57:45.746Z,97734.70
2018-12-03T09:00:27.710Z,97725.20
2018-12-03T09:03:28.556Z,97722.64
2018-12-03T09:06:03.244Z,97720.34
2018-12-03T09:08:34.902Z,97709.59
2018-12-03T09:11:07.645Z,97709.92
2018-12-03T09:13:39.535Z,97707.37
2018-12-03T09:16:11.446Z,97708.47
2018-12-03T09:18:43.688Z,97696.63
2018-12-03T09:21:16.726Z,97695.27
2018-12-03T09:23:53.945Z,97696.44
2018-12-03T09:26:25.774Z,97698.38
2018-12-03T09:28:57.530Z,97692.34
2018-12-03T09:31:29.250Z,97694.91
2018-12-03T09:34:01.575Z,97687.66
2018-12-03T09:36:33.457Z,97685.64
2018-12-03T09:39:17.296Z,97680.95
2018-12-03T09:41:50.305Z,97683.47
2018-12-03T09:44:21.994Z,97678.13
2018-12-03T09:46:53.828Z,97679.22
2018-12-03T09:49:25.598Z,97671.08
2018-12-03T09:51:57.395Z,97664.36
2018-12-03T09:54:29.153Z,97663.38
2018-12-03T09:57:00.847Z,97657.58
2018-12-03T09:59:32.498Z,97660.78
2018-12-03T10:02:05.080Z,97650.33
2018-12-03T10:04:39.579Z,97651.78
2018-12-03T10:07:13.045Z,97649.41
2018-12-03T10:09:44.678Z,97652.97
2018-12-03T10:12:18.316Z,97647.88
2018-12-03T10:14:49.940Z,97643.33
2018-12-03T10:17:21.668Z,97651.34
2018-12-03T10:19:53.527Z,97643.78
2018-12-03T10:22:25.437Z,97641.68
2018-12-03T10:24:57.256Z,97642.31
2018-12-03T10:27:29.070Z,97640.31
2018-12-03T10:30:02.645Z,97636.03
2018-12-03T10:32:34.487Z,97638.00
2018-12-03T10:35:06.717Z,97636.78
2018-12-03T10:37:38.376Z,97633.93
2018-12-03T10:40:20.932Z,97632.39
2018-12-03T10:42:52.867Z,97629.23
2018-12-03T10:45:26.264Z,97617.91
2018-12-03T10:47:59.392Z,97627.56
2018-12-03T10:50:31.100Z,97621.77
2018-12-03T10:53:02.889Z,97619.87
2018-12-03T10:55:38.206Z,97617.78
2018-12-03T10:58:09.998Z,97613.55
2018-12-03T11:00:58.719Z,97613.64
2018-12-03T11:03:47.178Z,97614.09
2018-12-03T11:06:23.245Z,97602.67
2018-12-03T11:08:55.143Z,97599.42
2018-12-03T11:11:27.054Z,97600.94
2018-12-03T11:14:04.417Z,97589.05
2018-12-03T11:16:38.433Z,97587.02
2018-12-03T11:19:13.918Z,97586.44
2018-12-03T11:21:46.559Z,97588.25
2018-12-03T11:24:19.028Z,97578.44
2018-12-03T11:26:52.469Z,97581.98
2018-12-03T11:29:24.269Z,97582.59
2018-12-03T11:31:56.536Z,97582.30
2018-12-03T11:34:28.790Z,97581.91
2018-12-03T11:37:02.112Z,97584.69
2018-12-03T11:39:59.015Z,97581.77
2018-12-03T11:42:36.303Z,97576.18
2018-12-03T11:45:10.304Z,97573.53
2018-12-03T11:47:42.049Z,97569.90
2018-12-03T11:50:16.301Z,97571.09
2018-12-03T11:52:48.133Z,97567.85
2018-12-03T11:55:19.933Z,97563.78
2018-12-03T11:57:51.765Z,97559.27
2018-12-03T12:00:23.538Z,97554.72
2018-12-03T12:02:55.687Z,97553.66
2018-12-03T12:05:27.477Z,97556.39
2018-12-03T12:07:59.226Z,97546.44
2018-12-03T12:10:31.134Z,97550.51
2018-12-03T12:13:04.771Z,97554.19
2018-12-03T12:15:36.636Z,97547.63
2018-12-03T12:18:08.388Z,97548.30
2018-12-03T12:20:40.153Z,97551.55
2018-12-03T12:23:11.943Z,97547.52
2018-12-03T12:25:43.762Z,97546.77
2018-12-03T12:28:15.491Z,97543.13
2018-12-03T12:30:47.285Z,97545.25
2018-12-03T12:33:18.946Z,97535.22
2018-12-03T12:35:50.773Z,97541.95
2018-12-03T12:38:22.547Z,97535.77
2018-12-03T12:40:54.933Z,97541.12
2018-12-03T12:43:26.786Z,97540.97
2018-12-03T12:46:01.327Z,97535.67
2018-12-03T12:48:33.058Z,97526.94
2018-12-03T12:51:04.924Z,97532.38
2018-12-03T12:53:36.724Z,97523.17
2018-12-03T12:56:08.584Z,97524.69
2018-12-03T12:58:40.315Z,97520.83
2018-12-03T13:01:12.080Z,97533.70
2018-12-03T13:06:41.456Z,97531.56
2018-12-03T13:09:13.641Z,97538.60
2018-12-03T13:11:49.322Z,97536.41
2018-12-03T13:14:21.122Z,97539.88
2018-12-03T13:16:52.955Z,97536.38
2018-12-03T13:19:24.847Z,97547.16
2018-12-03T13:21:56.633Z,97543.91
2018-12-03T13:24:28.523Z,97545.32
2018-12-03T13:27:00.304Z,97538.23
2018-12-03T13:29:32.004Z,97546.80
2018-12-03T13:32:22.343Z,97536.80
2018-12-03T13:34:58.026Z,97541.39
2018-12-03T13:37:29.840Z,97539.28
2018-12-03T13:40:01.710Z,97540.69
2018-12-03T13:42:33.606Z,97541.20
2018-12-03T13:45:05.456Z,97537.80
2018-12-03T13:47:56.576Z,97538.77
2018-12-03T13:50:32.341Z,97544.41
2018-12-03T13:53:07.443Z,97542.09
2018-12-03T13:55:39.251Z,97539.96
2018-12-03T13:58:10.947Z,97537.64
2018-12-03T14:00:42.582Z,97536.64
2018-12-03T14:03:16.964Z,97531.84
2018-12-03T14:06:16.252Z,97530.63
2018-12-03T14:09:16.863Z,97531.84
2018-12-03T14:12:15.299Z,97533.71
2018-12-03T14:15:27.843Z,97534.75
2018-12-03T14:18:08.927Z,97534.27
2018-12-03T14:20:43.503Z,97531.87
2018-12-03T14:23:17.103Z,97537.50
2018-12-03T14:25:48.944Z,97538.87
2018-12-03T14:28:20.687Z,97530.91
2018-12-03T14:30:52.370Z,97532.30
2018-12-03T14:33:24.295Z,97534.55
2018-12-03T14:35:55.972Z,97538.22
2018-12-03T14:38:27.681Z,97544.93
2018-12-03T14:40:59.504Z,97535.53
2018-12-03T14:43:37.571Z,97535.02
2018-12-03T14:46:09.374Z,97536.49
2018-12-03T14:48:48.698Z,97531.37
2018-12-03T14:51:28.782Z,97532.08
2018-12-03T14:54:11.623Z,97529.89
2018-12-03T14:56:43.420Z,97532.98
2018-12-03T14:59:15.093Z,97532.80
2018-12-03T15:01:46.845Z,97527.03
2018-12-03T15:04:18.518Z,97526.08
2018-12-03T15:06:50.285Z,97527.17
2018-12-03T15:09:25.107Z,97528.50
2018-12-03T15:11:56.942Z,97525.13
2018-12-03T15:14:47.193Z,97517.00
2018-12-03T15:17:18.874Z,97516.56
2018-12-03T15:19:50.514Z,97521.86
2018-12-03T15:22:22.452Z,97525.81
2018-12-03T15:24:54.250Z,97528.52
2018-12-03T15:27:25.989Z,97526.08
2018-12-03T15:29:57.796Z,97529.22
2018-12-03T15:32:29.482Z,97527.50
2018-12-03T15:35:05.253Z,97531.77
2018-12-03T15:37:37.073Z,97532.72
2018-12-03T15:40:14.920Z,97528.62
2018-12-03T15:42:50.830Z,97527.34
2018-12-03T15:45:25.921Z,97528.62
2018-12-03T15:47:57.733Z,97528.07
2018-12-03T15:50:29.583Z,97517.13
2018-12-03T15:53:04.958Z,97522.04
2018-12-03T15:55:36.845Z,97524.75
2018-12-03T15:58:19.074Z,97516.59
2018-12-03T16:00:59.779Z,97517.40
2018-12-03T16:03:31.664Z,97517.64
2018-12-03T16:06:03.647Z,97521.09
2018-12-03T16:08:35.393Z,97530.23
2018-12-03T16:11:25.740Z,97528.95
2018-12-03T16:14:00.423Z,97522.77
2018-12-03T16:16:32.214Z,97527.16
2018-12-03T16:19:04.043Z,97527.12
2018-12-03T16:21:40.504Z,97514.04
2018-12-03T16:24:12.382Z,97523.78
2018-12-03T16:26:44.153Z,97520.97
2018-12-03T16:29:34.527Z,97520.06
2018-12-03T16:32:06.450Z,97522.94
2018-12-03T16:34:44.736Z,97516.20
2018-12-03T16:37:16.583Z,97517.11
2018-12-03T16:39:48.610Z,97511.08
2018-12-03T16:42:20.612Z,97514.63
2018-12-03T16:44:55.883Z,97508.92
2018-12-03T16:47:27.594Z,97519.67
2018-12-03T16:49:59.395Z,97519.27
2018-12-03T16:52:31.150Z,97521.32
2018-12-03T16:55:03.003Z,97510.89
2018-12-03T16:57:34.677Z,97520.32
2018-12-03T17:00:09.787Z,97527.47
2018-12-03T17:02:47.963Z,97524.67
2018-12-03T17:05:19.667Z,97523.59
2018-12-03T17:07:51.452Z,97527.72
2018-12-03T17:10:27.172Z,97532.64
2018-12-03T17:12:59.754Z,97530.92
2018-12-03T17:15:49.964Z,97529.28
2018-12-03T17:18:27.048Z,97531.84
2018-12-03T17:21:21.330Z,97529.64
2018-12-03T17:24:25.410Z,97522.03
2018-12-03T17:26:57.382Z,97531.36
2018-12-03T17:29:29.151Z,97520.09
2018-12-03T17:32:00.954Z,97515.73
2018-12-03T17:34:32.773Z,97513.26
2018-12-03T17:37:23.363Z,97516.30
2018-12-03T17:40:02.350Z,97514.46
2018-12-03T17:42:34.157Z,97507.14
2018-12-03T17:45:07.649Z,97512.06
2018-12-03T17:47:45.674Z,97508.75
2018-12-03T17:50:17.592Z,97511.82
2018-12-03T17:52:52.723Z,97508.18
2018-12-03T17:55:24.487Z,97515.30
2018-12-03T17:58:04.242Z,97510.98
2018-12-03T18:00:36.043Z,97505.58
2018-12-03T18:03:13.773Z,97509.83
2018-12-03T18:05:49.562Z,97509.43
2018-12-03T18:11:11.264Z,97502.83
2018-12-03T18:13:46.402Z,97499.98
2018-12-03T18:16:18.282Z,97498.70
2018-12-03T18:18:50.086Z,97508.15
2018-12-03T18:21:21.934Z,97498.82
2018-12-03T18:23:53.883Z,97494.02
2018-12-03T18:26:25.685Z,97493.18
2018-12-03T18:28:57.333Z,97497.47
2018-12-03T18:31:29.159Z,97488.66
2018-12-03T18:34:00.949Z,97488.78
2018-12-03T18:36:32.756Z,97486.98
2018-12-03T18:39:04.833Z,97492.38
2018-12-03T18:41:39.295Z,97482.21
2018-12-03T18:44:11.137Z,97479.02
2018-12-03T18:46:42.974Z,97481.97
2018-12-03T18:49:27.049Z,97484.89
2018-12-03T18:51:58.715Z,97483.73
2018-12-03T18:54:30.506Z,97483.69
2018-12-03T18:57:02.304Z,97477.73
2018-12-03T18:59:34.133Z,97481.25
2018-12-03T19:02:05.935Z,97478.25
2018-12-03T19:04:37.830Z,97480.73
2018-12-03T19:07:09.605Z,97479.50
2018-12-03T19:09:41.452Z,97477.97
2018-12-03T19:12:13.184Z,97468.25
2018-12-03T19:14:45.001Z,97467.05
2018-12-03T19:17:16.794Z,97460.25
2018-12-03T19:19:48.442Z,97466.92
2018-12-03T19:22:20.214Z,97466.92
2018-12-03T19:24:53.885Z,97464.81
2018-12-03T19:27:25.646Z,97466.33
2018-12-03T19:29:57.459Z,97465.97
2018-12-03T19:32:31.097Z,97462.41
2018-12-03T19:35:11.035Z,97448.64
2018-12-03T19:37:44.708Z,97463.36
2018-12-03T19:40:16.473Z,97459.93
2018-12-03T19:42:48.248Z,97468.65
2018-12-03T19:45:20.067Z,97468.41
2018-12-03T19:47:51.819Z,97460.68
2018-12-03T19:50:23.592Z,97458.48
2018-12-03T19:52:56.375Z,97466.36
2018-12-03T19:55:28.709Z,97472.20
2018-12-03T19:58:18.436Z,97476.92
2018-12-03T20:00:51.333Z,97474.36
2018-12-03T20:03:23.386Z,97467.69
2018-12-03T20:05:55.303Z,97462.89
2018-12-03T20:08:27.056Z,97466.66
2018-12-03T20:10:58.879Z,97470.25
2018-12-03T20:13:30.771Z,97459.89
2018-12-03T20:16:02.473Z,97465.49
2018-12-03T20:18:34.331Z,97462.33
2018-12-03T20:21:09.403Z,97473.66
2018-12-03T20:23:50.486Z,97480.05
2018-12-03T20:26:31.156Z,97478.66
2018-12-03T20:29:36.354Z,97471.34
2018-12-03T20:32:25.392Z,97473.09
2018-12-03T20:35:25.040Z,97463.53
2018-12-03T20:38:16.594Z,97466.09
2018-12-03T20:41:14.514Z,97462.25
2018-12-03T20:43:47.004Z,97464.09
2018-12-03T20:46:30.985Z,97459.41
2018-12-03T20:49:35.605Z,97454.09
2018-12-03T20:52:17.616Z,97458.92
2018-12-03T20:54:50.342Z,97447.69
2018-12-03T20:57:22.072Z,97439.37
2018-12-03T20:59:53.936Z,97435.28
2018-12-03T21:02:26.314Z,97429.77
2018-12-03T21:04:57.987Z,97429.17
2018-12-03T21:07:30.915Z,97427.09
2018-12-03T21:10:02.727Z,97420.93
2018-12-03T21:12:34.439Z,97421.13
2018-12-03T21:15:06.327Z,97424.17
2018-12-03T21:17:38.085Z,97425.81
2018-12-03T21:20:22.221Z,97424.84
2018-12-03T21:22:53.994Z,97423.85
2018-12-03T21:25:25.766Z,97415.73
2018-12-03T21:27:57.418Z,97414.22
2018-12-03T21:30:29.254Z,97405.02
2018-12-03T21:33:00.900Z,97409.17
2018-12-03T21:35:32.694Z,97400.48
2018-12-03T21:38:04.493Z,97401.45
2018-12-03T21:40:36.282Z,97401.05
2018-12-03T21:43:08.127Z,97405.41
2018-12-03T21:45:39.820Z,97409.53
2018-12-03T21:48:11.615Z,97408.77
2018-12-03T21:50:43.285Z,97405.30
2018-12-03T21:53:15.968Z,97403.38
2018-12-03T21:55:47.694Z,97399.81
2018-12-03T21:58:19.496Z,97396.17
2018-12-03T22:00:51.252Z,97390.22
2018-12-03T22:03:23.121Z,97388.77
2018-12-03T22:05:54.750Z,97386.21
2018-12-03T22:08:26.636Z,97374.78
2018-12-03T22:10:58.754Z,97374.70
2018-12-03T22:13:30.451Z,97371.42
2018-12-03T22:16:02.235Z,97368.47
2018-12-03T22:18:34.161Z,97366.16
2018-12-03T22:21:06.141Z,97373.70
2018-12-03T22:23:37.979Z,97366.87
2018-12-03T22:26:09.860Z,97360.62
2018-12-03T22:28:41.715Z,97361.91
2018-12-03T22:31:13.578Z,97348.04
2018-12-03T22:33:45.547Z,97354.12
2018-12-03T22:36:17.338Z,97357.47
2018-12-03T22:38:50.799Z,97347.16
2018-12-03T22:41:22.524Z,97350.88
2018-12-03T22:43:54.208Z,97355.07
2018-12-03T22:46:25.846Z,97350.88
2018-12-03T22:48:57.632Z,97348.23
2018-12-03T22:51:29.517Z,97351.91
2018-12-03T22:54:01.196Z,97352.55
2018-12-03T22:56:33.046Z,97355.73
2018-12-03T22:59:04.934Z,97356.16
2018-12-03T23:01:36.706Z,97349.05
2018-12-03T23:04:08.388Z,97341.61
2018-12-03T23:06:40.241Z,97340.00
2018-12-03T23:09:12.112Z,97330.80
2018-12-03T23:11:43.943Z,97333.83
2018-12-03T23:14:15.776Z,97330.50
2018-12-03T23:16:47.628Z,97323.47
2018-12-03T23:19:19.411Z,97325.33
2018-12-03T23:21:51.265Z,97332.02
2018-12-03T23:24:22.982Z,97330.62
2018-12-03T23:26:54.747Z,97328.43
2018-12-03T23:31:54.179Z,97317.45
2018-12-03T23:34:24.829Z,97321.05
2018-12-03T23:36:55.326Z,97321.66
2018-12-03T23:39:25.799Z,97318.59
2018-12-03T23:41:56.253Z,97323.38
2018-12-03T23:44:26.847Z,97323.09
2018-12-03T23:46:57.566Z,97319.23
2018-12-03T23:49:28.136Z,97320.44
2018-12-03T23:51:58.723Z,97314.88
2018-12-03T23:54:29.287Z,97320.36
2018-12-03T23:56:59.904Z,97324.86
2018-12-03T23:59:30.474Z,97325.98
